Time;durP1;ratioP1;P1;durP2;ratioP2;P2;SDS_P1;SDS_P2;PMS_P1;PMS_P2;Temp;Humidity;BMP_temperature;BMP_pressure;BME280_temperature;BME280_humidity;BME280_pressure;Samples;Min_cycle;Max_cycle;Signal;HPM_P1;HPM_P2
2023/05/22 00:01:11;;;;;;;7.25;4.65;;;22.30;56.50;;;;;;4975233;28;20022;-75
2023/05/22 00:03:37;;;;;;;7.15;4.68;;;22.30;57.10;;;;;;4972644;28;20030;-75
2023/05/22 00:06:05;;;;;;;6.90;4.32;;;22.30;56.40;;;;;;4968472;28;20039;-74
2023/05/22 00:08:33;;;;;;;6.90;4.68;;;22.30;56.40;;;;;;4956477;28;20109;-75
2023/05/22 00:11:02;;;;;;;7.13;4.30;;;22.30;56.40;;;;;;4957643;28;20032;-75
2023/05/22 00:13:28;;;;;;;7.37;4.40;;;22.30;56.40;;;;;;4974899;28;20037;-75
2023/05/22 00:15:54;;;;;;;8.32;4.65;;;22.30;56.30;;;;;;4948955;28;20426;-74
2023/05/22 00:18:19;;;;;;;6.95;4.38;;;22.30;56.30;;;;;;4974473;28;20114;-74
2023/05/22 00:20:45;;;;;;;7.22;4.60;;;22.30;56.30;;;;;;4975160;28;20030;-74
2023/05/22 00:23:12;;;;;;;8.07;4.15;;;22.30;56.30;;;;;;4949122;28;20034;-74
2023/05/22 00:25:38;;;;;;;6.63;4.43;;;22.30;56.30;;;;;;4941555;28;20061;-74
2023/05/22 00:28:04;;;;;;;7.57;4.40;;;22.30;56.30;;;;;;4957092;28;20027;-74
2023/05/22 00:30:30;;;;;;;6.53;4.35;;;22.30;56.30;;;;;;4956119;28;20450;-74
2023/05/22 00:32:56;;;;;;;5.13;3.90;;;22.30;56.20;;;;;;4955860;28;20595;-73
2023/05/22 00:35:22;;;;;;;6.93;4.45;;;22.30;56.20;;;;;;4974467;28;20058;-74
2023/05/22 00:37:48;;;;;;;7.30;4.13;;;22.30;56.20;;;;;;4956945;28;20202;-74
2023/05/22 00:40:15;;;;;;;6.40;4.18;;;22.30;56.30;;;;;;4957312;28;20109;-74
2023/05/22 00:42:43;;;;;;;7.25;4.63;;;22.30;56.30;;;;;;4957184;28;20450;-74
2023/05/22 00:45:10;;;;;;;5.22;3.85;;;22.30;56.30;;;;;;4973309;28;20027;-73
2023/05/22 00:47:39;;;;;;;7.15;4.15;;;22.30;56.30;;;;;;4939976;28;20118;-74
2023/05/22 00:50:06;;;;;;;6.65;4.47;;;22.30;56.30;;;;;;4941081;28;20061;-74
2023/05/22 00:52:34;;;;;;;7.38;4.47;;;22.30;56.80;;;;;;4957012;28;20149;-73
2023/05/22 00:55:02;;;;;;;6.20;3.97;;;22.30;56.30;;;;;;4941243;28;20499;-73
2023/05/22 00:57:30;;;;;;;7.80;4.35;;;22.30;56.20;;;;;;4925120;28;20034;-73
2023/05/22 00:59:55;;;;;;;5.93;3.90;;;22.30;56.20;;;;;;4952247;29;20370;-73
2023/05/22 01:02:24;;;;;;;5.72;4.00;;;22.30;56.20;;;;;;4969360;28;20038;-74
2023/05/22 01:04:50;;;;;;;6.38;3.72;;;22.30;56.20;;;;;;4956867;28;20027;-74
2023/05/22 01:07:16;;;;;;;7.68;4.10;;;22.30;56.30;;;;;;4956535;28;20030;-73
2023/05/22 01:09:43;;;;;;;7.20;3.75;;;22.30;56.10;;;;;;4955091;28;20381;-74
2023/05/22 01:12:26;;;;;;;7.03;4.18;;;22.30;56.20;;;;;;4956578;28;20369;-73
2023/05/22 01:15:17;;;;;;;5.80;3.72;;;22.30;56.70;;;;;;4956945;28;20031;-73
2023/05/22 01:18:11;;;;;;;5.38;3.97;;;22.30;56.10;;;;;;4932029;28;20060;-74
2023/05/22 01:20:47;;;;;;;6.82;4.00;;;22.30;56.00;;;;;;4973579;28;20046;-73
2023/05/22 01:23:33;;;;;;;6.38;3.75;;;22.30;56.00;;;;;;4956608;28;20090;-74
2023/05/22 01:26:21;;;;;;;7.78;4.03;;;22.30;56.00;;;;;;4955772;28;20027;-73
2023/05/22 01:29:19;;;;;;;7.60;3.88;;;22.30;56.00;;;;;;4955874;28;20038;-73
2023/05/22 01:31:47;;;;;;;6.03;3.88;;;22.30;56.00;;;;;;4953628;28;20046;-73
2023/05/22 01:34:16;;;;;;;6.43;3.90;;;22.30;56.00;;;;;;4940282;28;20093;-74
2023/05/22 01:36:45;;;;;;;6.35;3.53;;;22.30;56.00;;;;;;4954460;28;20101;-73
2023/05/22 01:39:11;;;;;;;;;;;22.30;56.00;;;;;;4949758;29;20027;-73
2023/05/22 01:41:39;;;;;;;5.60;3.58;;;22.30;56.00;;;;;;4970276;28;19920;-73
2023/05/22 01:44:05;;;;;;;5.45;3.50;;;22.30;56.00;;;;;;4956084;28;20481;-73
2023/05/22 01:46:31;;;;;;;5.60;4.05;;;22.30;56.00;;;;;;4954327;28;20034;-73
2023/05/22 01:48:58;;;;;;;6.03;3.53;;;22.30;56.00;;;;;;4954924;28;20084;-73
2023/05/22 01:51:44;;;;;;;6.03;3.78;;;22.30;56.00;;;;;;4955783;28;20026;-73
2023/05/22 01:54:30;;;;;;;5.68;3.60;;;22.30;56.00;;;;;;4939808;28;20412;-73
2023/05/22 01:57:12;;;;;;;5.88;3.67;;;22.30;56.00;;;;;;4941297;28;20548;-73
2023/05/22 01:59:47;;;;;;;4.78;3.33;;;22.30;56.00;;;;;;4939277;28;20034;-74
2023/05/22 02:02:16;;;;;;;9.32;3.83;;;22.30;55.90;;;;;;4954817;28;20035;-73
2023/05/22 02:04:47;;;;;;;6.10;3.47;;;22.30;56.00;;;;;;4955710;28;20477;-73
2023/05/22 02:07:15;;;;;;;5.50;3.47;;;22.30;55.90;;;;;;4955614;28;20027;-74
2023/05/22 02:09:46;;;;;;;7.55;3.92;;;22.30;56.50;;;;;;4955686;28;20081;-73
2023/05/22 02:12:12;;;;;;;4.70;3.38;;;22.30;55.80;;;;;;4928711;29;20390;-73
2023/05/22 02:14:40;;;;;;;4.43;3.40;;;22.30;55.80;;;;;;4951372;28;20018;-74
2023/05/22 02:17:06;;;;;;;5.72;3.20;;;22.30;55.80;;;;;;4966436;28;20107;-73
2023/05/22 02:19:34;;;;;;;4.53;3.08;;;22.30;55.80;;;;;;4955481;28;20027;-74
2023/05/22 02:22:00;;;;;;;5.85;3.53;;;22.30;55.70;;;;;;4955597;28;20481;-74
2023/05/22 02:24:26;;;;;;;4.93;3.63;;;22.30;55.70;;;;;;4972741;28;20035;-73
2023/05/22 02:26:52;;;;;;;4.25;3.17;;;22.30;55.80;;;;;;4946492;28;20031;-73
2023/05/22 02:29:18;;;;;;;4.95;3.30;;;22.30;55.70;;;;;;4955174;28;20118;-73
2023/05/22 02:31:45;;;;;;;4.95;3.20;;;22.30;55.70;;;;;;4955368;28;20034;-74
2023/05/22 02:34:10;;;;;;;4.82;3.30;;;22.30;55.70;;;;;;4972451;28;20022;-74
2023/05/22 02:36:36;;;;;;;4.18;3.40;;;22.30;55.80;;;;;;4955340;28;20589;-74
2023/05/22 02:39:03;;;;;;;6.65;3.50;;;22.30;55.70;;;;;;4954545;28;20023;-74
2023/05/22 02:41:29;;;;;;;4.63;3.22;;;22.30;55.70;;;;;;4946615;28;20030;-74
2023/05/22 02:43:56;;;;;;;5.07;3.17;;;22.30;55.60;;;;;;4955421;28;20125;-75
2023/05/22 02:46:21;;;;;;;5.07;3.28;;;22.30;55.70;;;;;;4939531;28;20536;-75
2023/05/22 02:48:47;;;;;;;4.60;3.22;;;22.20;55.60;;;;;;4954853;28;20127;-74
2023/05/22 02:51:13;;;;;;;4.38;3.17;;;22.30;55.70;;;;;;4955214;28;20031;-74
2023/05/22 02:53:40;;;;;;;4.75;3.10;;;22.30;55.70;;;;;;4952525;28;20585;-74
2023/05/22 02:56:10;;;;;;;5.20;3.25;;;22.30;55.70;;;;;;4949286;28;20031;-74
2023/05/22 02:58:40;;;;;;;3.97;3.05;;;22.30;55.70;;;;;;4955006;28;20042;-74
2023/05/22 03:01:07;;;;;;;4.85;3.00;;;22.30;55.70;;;;;;4939373;28;20428;-74
2023/05/22 03:03:34;;;;;;;4.93;3.35;;;22.30;55.70;;;;;;4955341;28;20086;-74
2023/05/22 03:06:00;;;;;;;4.18;3.00;;;22.20;55.60;;;;;;4955260;28;20441;-74
2023/05/22 03:08:30;;;;;;;4.85;2.97;;;22.30;55.70;;;;;;4930036;28;20035;-74
2023/05/22 03:10:58;;;;;;;5.63;3.38;;;22.30;55.60;;;;;;4957272;28;20058;-74
2023/05/22 03:13:24;;;;;;;4.97;3.33;;;22.30;55.60;;;;;;4975984;28;20477;-74
2023/05/22 03:15:50;;;;;;;4.32;2.78;;;22.30;55.60;;;;;;4942919;28;20027;-74
2023/05/22 03:18:16;;;;;;;5.97;3.38;;;22.30;56.10;;;;;;4950776;29;20031;-74
2023/05/22 03:20:43;;;;;;;4.55;3.17;;;22.30;55.50;;;;;;4948343;28;20027;-75
2023/05/22 03:23:10;;;;;;;3.83;2.97;;;22.30;55.50;;;;;;4958857;28;20061;-75
2023/05/22 03:25:36;;;;;;;5.00;3.22;;;22.30;55.40;;;;;;4958565;28;20166;-74
2023/05/22 03:28:02;;;;;;;5.38;3.28;;;22.30;55.40;;;;;;4958127;28;20532;-75
2023/05/22 03:30:32;;;;;;;4.57;3.25;;;22.30;55.50;;;;;;4958417;28;20097;-75
2023/05/22 03:33:10;;;;;;;4.45;3.00;;;22.30;55.50;;;;;;4956856;28;20114;-75
2023/05/22 03:35:36;;;;;;;6.18;3.55;;;22.30;55.50;;;;;;4975540;28;20527;-75
2023/05/22 03:38:02;;;;;;;7.22;3.97;;;22.30;55.40;;;;;;4958097;28;20027;-75
2023/05/22 03:40:28;;;;;;;4.28;3.15;;;22.30;55.40;;;;;;4958186;28;20031;-75
2023/05/22 03:42:54;;;;;;;4.22;3.13;;;22.30;55.40;;;;;;4958481;28;20101;-75
2023/05/22 03:45:20;;;;;;;5.53;3.30;;;22.30;55.40;;;;;;4956649;28;20397;-75
2023/05/22 03:47:46;;;;;;;5.15;3.03;;;22.30;55.40;;;;;;4934156;28;20053;-75
2023/05/22 03:50:12;;;;;;;6.40;3.35;;;22.30;55.40;;;;;;4958066;28;20026;-75
2023/05/22 03:52:38;;;;;;;4.65;3.55;;;22.30;55.40;;;;;;4958067;28;20086;-75
2023/05/22 03:55:05;;;;;;;5.80;3.30;;;22.30;55.50;;;;;;4975430;28;20454;-75
2023/05/22 03:57:31;;;;;;;4.40;3.10;;;22.30;56.00;;;;;;4974838;28;20034;-75
2023/05/22 04:00:01;;;;;;;6.43;3.35;;;22.30;55.40;;;;;;4949597;28;20036;-75
2023/05/22 04:02:28;;;;;;;5.50;3.17;;;22.30;55.40;;;;;;4974976;28;20031;-74
2023/05/22 04:04:56;;;;;;;5.50;3.58;;;22.30;55.20;;;;;;4975370;28;20057;-74
2023/05/22 04:07:22;;;;;;;5.88;3.20;;;22.30;55.40;;;;;;4941649;28;20054;-74
2023/05/22 04:09:48;;;;;;;5.82;3.42;;;22.30;55.40;;;;;;4957761;28;20481;-75
2023/05/22 04:12:14;;;;;;;5.03;2.90;;;22.30;55.40;;;;;;4925903;28;20113;-75
2023/05/22 04:14:41;;;;;;;4.43;3.33;;;22.30;55.30;;;;;;4973880;28;20035;-74
2023/05/22 04:17:07;;;;;;;4.93;3.20;;;22.30;55.40;;;;;;4974591;28;20031;-75
2023/05/22 04:19:33;;;;;;;6.75;3.50;;;22.30;55.30;;;;;;4957673;28;20034;-74
2023/05/22 04:21:59;;;;;;;5.95;3.55;;;22.30;55.30;;;;;;4940566;28;20035;-75
2023/05/22 04:24:26;;;;;;;5.47;3.50;;;22.30;55.30;;;;;;4948870;29;20031;-74
2023/05/22 04:26:52;;;;;;;6.32;3.50;;;22.30;55.30;;;;;;4973773;28;20031;-75
2023/05/22 04:29:20;;;;;;;6.18;3.80;;;22.30;55.20;;;;;;4957343;28;20041;-74
2023/05/22 04:31:46;;;;;;;6.13;3.72;;;22.30;55.20;;;;;;4956626;28;20039;-74
2023/05/22 04:34:15;;;;;;;6.93;3.88;;;22.30;55.20;;;;;;4957319;28;20041;-74
2023/05/22 04:36:43;;;;;;;5.53;3.80;;;22.30;55.20;;;;;;4957548;28;20027;-74
2023/05/22 04:39:09;;;;;;;6.35;3.78;;;22.30;55.20;;;;;;4950485;29;20114;-74
2023/05/22 04:41:37;;;;;;;5.10;3.72;;;22.30;55.20;;;;;;4972399;28;20049;-75
2023/05/22 04:44:03;;;;;;;6.72;3.58;;;22.30;55.20;;;;;;4957247;28;20035;-74
2023/05/22 04:46:30;;;;;;;6.18;3.65;;;22.30;55.20;;;;;;4974384;28;20038;-74
2023/05/22 04:49:00;;;;;;;6.82;3.53;;;22.30;55.20;;;;;;4956897;28;20035;-75
2023/05/22 04:51:31;;;;;;;5.93;3.88;;;22.30;55.30;;;;;;4963732;28;20042;-74
2023/05/22 04:53:57;;;;;;;6.80;3.88;;;22.30;55.30;;;;;;4948331;28;20452;-75
2023/05/22 04:56:23;;;;;;;6.30;3.60;;;22.30;55.30;;;;;;4956854;28;20031;-75
2023/05/22 04:58:49;;;;;;;7.82;3.75;;;22.30;55.30;;;;;;4973821;28;20512;-74
2023/05/22 05:01:15;;;;;;;6.88;3.75;;;22.30;55.20;;;;;;4956652;28;20029;-74
2023/05/22 05:03:43;;;;;;;6.00;3.72;;;22.30;55.30;;;;;;4956729;28;20405;-74
2023/05/22 05:06:11;;;;;;;5.50;3.55;;;22.30;55.30;;;;;;4964982;28;20037;-74
2023/05/22 05:08:37;;;;;;;9.13;3.55;;;22.30;55.30;;;;;;4956361;28;20043;-75
2023/05/22 05:11:03;;;;;;;5.65;3.40;;;22.30;55.30;;;;;;4956849;28;20077;-74
2023/05/22 05:13:29;;;;;;;5.38;3.53;;;22.30;55.20;;;;;;4940527;28;20034;-75
2023/05/22 05:15:58;;;;;;;5.90;3.60;;;22.30;55.30;;;;;;4956478;28;20110;-75
2023/05/22 05:18:25;;;;;;;7.07;4.20;;;22.30;55.30;;;;;;4954929;28;20027;-75
2023/05/22 05:20:51;;;;;;;5.70;3.42;;;22.30;55.20;;;;;;4947572;28;20037;-74
2023/05/22 05:23:17;;;;;;;7.72;3.40;;;22.30;55.20;;;;;;4973532;28;20489;-75
2023/05/22 05:25:42;;;;;;;5.13;3.47;;;22.30;55.20;;;;;;4956249;28;20034;-75
2023/05/22 05:28:11;;;;;;;7.95;3.50;;;22.30;55.20;;;;;;4956009;28;20034;-75
2023/05/22 05:30:39;;;;;;;6.15;3.50;;;22.30;55.20;;;;;;4940383;28;20035;-74
2023/05/22 05:33:18;;;;;;;5.88;3.53;;;22.30;55.20;;;;;;4965353;28;20518;-75
2023/05/22 05:36:03;;;;;;;6.38;3.58;;;22.30;55.30;;;;;;4973407;28;20023;-75
2023/05/22 05:38:30;;;;;;;6.47;3.70;;;22.30;55.20;;;;;;4955774;28;20477;-75
2023/05/22 05:40:56;;;;;;;5.22;3.58;;;22.30;55.10;;;;;;4956086;28;20073;-75
2023/05/22 05:43:24;;;;;;;7.10;3.72;;;22.30;55.20;;;;;;4931225;29;20046;-75
2023/05/22 05:45:52;;;;;;;4.65;3.47;;;22.30;55.20;;;;;;4955966;28;20065;-74
2023/05/22 05:48:18;;;;;;;4.57;3.40;;;22.30;55.30;;;;;;4955726;28;20109;-75
2023/05/22 05:50:46;;;;;;;5.45;3.55;;;22.30;55.30;;;;;;4954634;28;20035;-75
2023/05/22 05:53:12;;;;;;;5.43;3.47;;;22.30;55.20;;;;;;4955740;28;20104;-75
2023/05/22 05:55:41;;;;;;;5.75;3.83;;;22.30;55.20;;;;;;4955821;28;20054;-74
2023/05/22 05:58:08;;;;;;;6.50;4.15;;;22.30;55.20;;;;;;4954580;28;20031;-74
2023/05/22 06:00:41;;;;;;;4.95;3.30;;;22.30;55.20;;;;;;4954497;28;20027;-75
2023/05/22 06:03:07;;;;;;;6.50;3.40;;;22.30;55.30;;;;;;4955653;28;20046;-75
2023/05/22 06:05:49;;;;;;;4.93;3.47;;;22.30;55.20;;;;;;4941867;28;20070;-75
2023/05/22 06:08:34;;;;;;;5.13;3.42;;;22.30;55.30;;;;;;4955402;28;20089;-75
2023/05/22 06:11:00;;;;;;;6.63;3.78;;;22.30;55.30;;;;;;4955553;28;20500;-75
2023/05/22 06:13:36;;;;;;;5.88;3.22;;;22.30;55.30;;;;;;4954601;28;20034;-75
2023/05/22 06:16:03;;;;;;;7.50;3.67;;;22.30;55.30;;;;;;4955726;28;20581;-75
2023/05/22 06:18:28;;;;;;;5.63;3.30;;;22.40;55.30;;;;;;4975398;28;20090;-75
2023/05/22 06:20:57;;;;;;;5.55;3.50;;;22.40;55.30;;;;;;4973748;28;20035;-74
2023/05/22 06:23:23;;;;;;;4.93;3.55;;;22.40;55.40;;;;;;4974303;28;20031;-75
2023/05/22 06:25:49;;;;;;;6.57;3.58;;;22.40;55.40;;;;;;4966894;28;20046;-74
2023/05/22 06:28:16;;;;;;;5.07;3.42;;;22.30;55.30;;;;;;4961120;28;20129;-74
2023/05/22 06:30:42;;;;;;;6.47;3.58;;;22.40;55.40;;;;;;4973109;28;20520;-74
2023/05/22 06:33:13;;;;;;;6.97;3.30;;;22.40;55.30;;;;;;4955836;28;20580;-73
2023/05/22 06:35:40;;;;;;;5.38;3.40;;;22.40;55.30;;;;;;4955758;28;20035;-75
2023/05/22 06:38:07;;;;;;;6.35;3.88;;;22.30;55.40;;;;;;4954173;28;20256;-75
2023/05/22 06:40:33;;;;;;;6.32;3.58;;;22.40;55.40;;;;;;4955052;28;20022;-75
2023/05/22 06:43:08;;;;;;;5.72;3.60;;;22.40;55.40;;;;;;4955239;28;20077;-75
2023/05/22 06:46:00;;;;;;;5.30;3.35;;;22.40;55.40;;;;;;4972185;28;20045;-75
2023/05/22 06:48:43;;;;;;;4.03;3.13;;;22.30;55.30;;;;;;4958924;28;20037;-75
2023/05/22 06:51:20;;;;;;;7.10;3.80;;;22.40;56.00;;;;;;4959125;28;20089;-75
2023/05/22 06:53:50;;;;;;;5.55;3.95;;;22.40;55.40;;;;;;4949899;28;20038;-75
2023/05/22 06:56:21;;;;;;;5.93;3.47;;;22.40;55.50;;;;;;4950789;28;20031;-75
2023/05/22 06:58:52;;;;;;;6.45;3.67;;;22.40;55.40;;;;;;4958651;28;20031;-75
2023/05/22 07:01:20;;;;;;;4.95;3.42;;;22.40;55.50;;;;;;4957942;28;20023;-75
2023/05/22 07:04:00;;;;;;;5.30;3.55;;;22.40;55.40;;;;;;4937976;29;20114;-75
2023/05/22 07:06:37;;;;;;;7.35;3.70;;;22.40;55.40;;;;;;4970069;28;20155;-75
2023/05/22 07:09:05;;;;;;;5.03;3.08;;;22.40;55.50;;;;;;4958492;28;20077;-75
2023/05/22 07:11:31;;;;;;;5.05;3.20;;;22.40;55.50;;;;;;4958646;28;20030;-75
2023/05/22 07:13:57;;;;;;;6.97;3.65;;;22.40;55.50;;;;;;4942662;28;20045;-75
2023/05/22 07:16:24;;;;;;;4.82;3.30;;;22.40;55.50;;;;;;4958049;28;20469;-74
2023/05/22 07:18:51;;;;;;;6.45;3.60;;;22.40;55.40;;;;;;4949694;28;20026;-75
2023/05/22 07:21:17;;;;;;;4.82;3.35;;;22.40;55.60;;;;;;4958491;28;20121;-75
2023/05/22 07:23:43;;;;;;;5.13;3.33;;;22.40;55.50;;;;;;4958554;28;20154;-75
2023/05/22 07:26:09;;;;;;;6.05;3.55;;;22.40;55.60;;;;;;4958500;28;20451;-74
2023/05/22 07:28:41;;;;;;;5.25;3.10;;;22.40;55.50;;;;;;4958216;28;20193;-75
2023/05/22 07:31:12;;;;;;;6.10;3.72;;;22.40;55.60;;;;;;4957467;28;20042;-75
2023/05/22 07:33:38;;;;;;;5.60;3.30;;;22.40;55.60;;;;;;4958479;28;20034;-75
2023/05/22 07:36:05;;;;;;;5.43;3.47;;;22.40;55.60;;;;;;4958403;28;20050;-75
2023/05/22 07:38:31;;;;;;;5.63;3.70;;;22.40;55.70;;;;;;4941864;28;20491;-75
2023/05/22 07:41:03;;;;;;;6.18;3.47;;;22.40;55.60;;;;;;4957390;28;20023;-75
2023/05/22 07:43:30;;;;;;;5.80;3.40;;;22.40;55.70;;;;;;4958132;28;20035;-75
2023/05/22 07:45:57;;;;;;;5.32;3.42;;;22.40;55.60;;;;;;4941868;28;20031;-75
2023/05/22 07:48:27;;;;;;;6.57;3.40;;;22.40;55.70;;;;;;4970313;28;20085;-74
2023/05/22 07:50:53;;;;;;;7.80;3.80;;;22.40;55.60;;;;;;4957917;28;20031;-75
2023/05/22 07:53:19;;;;;;;4.13;2.85;;;22.50;55.70;;;;;;4958068;28;20063;-75
2023/05/22 07:55:48;;;;;;;4.72;3.28;;;22.40;55.60;;;;;;4957908;28;20110;-75
2023/05/22 07:58:14;;;;;;;5.88;3.65;;;22.50;55.80;;;;;;4955321;28;20106;-75
2023/05/22 08:00:42;;;;;;;6.85;3.67;;;22.50;55.60;;;;;;4957637;28;20038;-75
2023/05/22 08:03:07;;;;;;;5.60;3.33;;;22.50;55.70;;;;;;4975136;28;20026;-75
2023/05/22 08:05:33;;;;;;;5.20;3.45;;;22.40;55.60;;;;;;4958151;28;20062;-75
2023/05/22 08:07:59;;;;;;;5.95;3.83;;;22.50;55.80;;;;;;4974877;28;20031;-74
2023/05/22 08:10:25;;;;;;;5.82;3.50;;;22.50;55.80;;;;;;4974179;28;20031;-74
2023/05/22 08:12:51;;;;;;;5.55;3.60;;;22.50;55.70;;;;;;4966190;28;20539;-75
2023/05/22 08:15:17;;;;;;;7.55;3.60;;;22.50;55.70;;;;;;4974825;28;20051;-74
2023/05/22 08:17:43;;;;;;;5.68;3.60;;;22.50;55.70;;;;;;4974519;28;20366;-75
2023/05/22 08:20:10;;;;;;;6.63;3.72;;;22.50;55.70;;;;;;4974681;28;20038;-74
2023/05/22 08:22:37;;;;;;;5.05;3.70;;;22.50;55.70;;;;;;4974882;28;20038;-74
2023/05/22 08:25:04;;;;;;;7.45;3.80;;;22.50;55.70;;;;;;4975001;28;20019;-75
2023/05/22 08:27:29;;;;;;;6.47;3.88;;;22.50;55.70;;;;;;4965528;28;20023;-75
2023/05/22 08:29:58;;;;;;;5.35;3.40;;;22.50;55.70;;;;;;4974656;28;20037;-74
2023/05/22 08:32:23;;;;;;;6.13;3.70;;;22.50;55.70;;;;;;4975114;28;20031;-75
2023/05/22 08:34:49;;;;;;;7.93;4.15;;;22.50;55.70;;;;;;4974507;28;20089;-74
2023/05/22 08:37:15;;;;;;;7.65;4.20;;;22.50;55.70;;;;;;4974209;28;20396;-74
2023/05/22 08:39:41;;;;;;;5.85;3.97;;;22.50;55.80;;;;;;4974462;28;20074;-74
2023/05/22 08:42:07;;;;;;;8.45;4.20;;;22.50;55.80;;;;;;4965241;28;20094;-74
2023/05/22 08:44:33;;;;;;;7.40;3.80;;;22.50;55.80;;;;;;4941207;28;20070;-74
2023/05/22 08:47:00;;;;;;;7.28;3.92;;;22.50;55.90;;;;;;4974201;28;20038;-75
2023/05/22 08:49:26;;;;;;;5.95;3.60;;;22.50;55.90;;;;;;4956934;28;20110;-74
2023/05/22 08:51:59;;;;;;;5.70;3.72;;;22.50;55.90;;;;;;4965132;28;20035;-74
2023/05/22 08:54:25;;;;;;;5.45;3.65;;;22.50;55.90;;;;;;4974091;28;20118;-74
2023/05/22 08:56:52;;;;;;;7.03;3.95;;;22.50;55.90;;;;;;4956666;28;20374;-74
2023/05/22 08:59:19;;;;;;;5.45;3.72;;;22.50;55.80;;;;;;4964418;28;20082;-75
2023/05/22 09:01:46;;;;;;;5.50;3.85;;;22.50;55.90;;;;;;4972985;28;20081;-74
2023/05/22 09:04:13;;;;;;;6.40;3.95;;;22.50;55.80;;;;;;4965514;28;20027;-74
2023/05/22 09:06:39;;;;;;;5.57;3.67;;;22.50;55.90;;;;;;4973972;28;20030;-74
2023/05/22 09:09:04;;;;;;;5.95;4.00;;;22.50;55.80;;;;;;4955780;28;20042;-74
2023/05/22 09:11:30;;;;;;;5.90;3.80;;;22.50;55.90;;;;;;4974000;28;20111;-74
2023/05/22 09:14:09;;;;;;;5.75;3.78;;;22.50;55.90;;;;;;4972819;28;20481;-74
2023/05/22 09:16:50;;;;;;;6.07;3.73;;;22.50;56.00;;;;;;4971534;28;20422;-74
2023/05/22 09:19:16;;;;;;;6.03;3.85;;;22.50;55.90;;;;;;4968963;28;20397;-74
2023/05/22 09:21:46;;;;;;;5.72;3.70;;;22.50;55.90;;;;;;4972479;28;20035;-74
2023/05/22 09:24:12;;;;;;;;;;;22.50;55.90;;;;;;4974052;28;20062;-74
2023/05/22 09:26:39;;;;;;;6.32;3.72;;;22.60;55.90;;;;;;4973576;28;19921;-74
2023/05/22 09:29:08;;;;;;;5.15;3.40;;;22.60;56.50;;;;;;4967700;28;20054;-74
2023/05/22 09:31:41;;;;;;;;;;;22.60;55.90;;;;;;4972601;28;20120;-76
2023/05/22 09:34:12;;;;;;;15.10;6.38;;;22.60;56.00;;;;;;4971495;28;19918;-75
2023/05/22 09:36:39;;;;;;;16.88;5.28;;;22.70;57.30;;;;;;4937982;28;20022;-80
2023/05/22 09:39:05;;;;;;;15.75;5.32;;;22.70;55.90;;;;;;4938128;28;20596;-80
2023/05/22 09:41:38;;;;;;;16.00;5.22;;;22.70;55.40;;;;;;4945236;28;20513;-83
2023/05/22 09:44:15;;;;;;;14.25;4.97;;;22.70;55.70;;;;;;4948953;28;20404;-81
2023/05/22 09:46:45;;;;;;;14.93;4.70;;;22.70;56.10;;;;;;4970120;28;20074;-81
2023/05/22 09:49:11;;;;;;;12.95;4.95;;;22.80;55.70;;;;;;4932785;28;20042;-81
2023/05/22 09:51:40;;;;;;;17.92;5.18;;;22.80;56.60;;;;;;4964151;28;20035;-80
2023/05/22 09:54:08;;;;;;;11.80;4.78;;;22.80;56.40;;;;;;4941642;28;20035;-78
2023/05/22 09:56:35;;;;;;;12.80;4.57;;;22.80;55.40;;;;;;4965185;28;20035;-79
2023/05/22 09:59:04;;;;;;;11.05;4.55;;;22.80;54.60;;;;;;4936688;28;20027;-79
2023/05/22 10:01:32;;;;;;;12.15;5.00;;;22.80;54.30;;;;;;4962807;28;20169;-82
2023/05/22 10:03:59;;;;;;;11.90;4.07;;;22.80;53.40;;;;;;4969652;28;20397;-82
2023/05/22 10:06:26;;;;;;;6.00;3.70;;;22.80;52.50;;;;;;4953999;28;20038;-81
2023/05/22 10:09:03;;;;;;;11.43;3.95;;;22.80;52.30;;;;;;4948472;28;20049;-84
2023/05/22 10:11:36;;;;;;;9.50;4.07;;;22.90;52.60;;;;;;4946069;29;20031;-84
2023/05/22 10:14:02;;;;;;;;;;;22.90;52.00;;;;;;4970616;28;20034;-85
2023/05/22 10:16:29;;;;;;;9.52;4.47;;;22.80;51.80;;;;;;4958760;28;19910;-83
2023/05/22 10:19:18;;;;;;;14.82;5.60;;;22.90;51.80;;;;;;4932556;28;20042;-83
2023/05/22 10:22:05;;;;;;;14.13;5.32;;;22.90;51.60;;;;;;4970332;28;20641;-82
2023/05/22 10:24:31;;;;;;;10.80;5.35;;;22.90;51.80;;;;;;4971678;28;20055;-83
2023/05/22 10:26:58;;;;;;;13.80;4.53;;;22.90;52.00;;;;;;4976276;28;20030;-81
2023/05/22 10:29:35;;;;;;;10.80;4.45;;;22.90;51.80;;;;;;4954057;28;20035;-80
2023/05/22 10:32:04;;;;;;;12.65;5.05;;;22.90;51.50;;;;;;4952785;28;20114;-81
2023/05/22 10:35:30;;;;;;;26.33;5.80;;;22.90;51.70;;;;;;4967461;28;20134;-81
2023/05/22 10:38:06;;;;;;;16.85;5.10;;;22.90;52.20;;;;;;4970483;28;20583;-80
2023/05/22 10:40:34;;;;;;;19.27;5.15;;;23.00;51.00;;;;;;4953316;28;20116;-79
2023/05/22 10:43:02;;;;;;;11.75;4.35;;;22.90;50.60;;;;;;4972572;28;20034;-79
2023/05/22 10:45:29;;;;;;;12.90;4.60;;;22.90;50.50;;;;;;4942543;29;20123;-79
2023/05/22 10:48:05;;;;;;;11.07;4.90;;;22.90;50.50;;;;;;4966386;28;20436;-79
2023/05/22 10:50:32;;;;;;;20.10;5.45;;;22.90;55.80;;;;;;4972262;28;20182;-79
2023/05/22 10:53:23;;;;;;;42.22;9.30;;;23.00;59.10;;;;;;4944349;28;20051;-79
2023/05/22 10:55:50;;;;;;;27.35;8.30;;;23.00;62.30;;;;;;4970954;28;20027;-80
2023/05/22 10:58:17;;;;;;;35.92;7.85;;;23.00;63.70;;;;;;4954608;28;20035;-79
2023/05/22 11:00:43;;;;;;;35.70;8.45;;;23.00;64.40;;;;;;4961734;28;20023;-79
2023/05/22 11:03:10;;;;;;;27.65;8.38;;;23.00;69.10;;;;;;4938539;28;20122;-80
2023/05/22 11:05:36;;;;;;;25.17;6.72;;;23.00;71.20;;;;;;4936451;29;20034;-80
2023/05/22 11:08:09;;;;;;;14.55;6.15;;;23.10;67.10;;;;;;4939687;28;20350;-81
2023/05/22 11:10:51;;;;;;;13.23;4.80;;;23.10;54.10;;;;;;4938506;28;20046;-81
2023/05/22 11:13:17;;;;;;;10.65;4.35;;;23.20;49.90;;;;;;4970162;28;20053;-81
2023/05/22 11:15:45;;;;;;;7.90;4.63;;;23.30;49.90;;;;;;4954827;28;20019;-81
2023/05/22 11:18:13;;;;;;;13.20;4.85;;;23.20;52.20;;;;;;4943371;28;20501;-81
2023/05/22 11:20:39;;;;;;;10.27;4.93;;;23.10;53.40;;;;;;4971854;28;20030;-78
2023/05/22 11:23:06;;;;;;;11.65;5.15;;;23.10;53.70;;;;;;4968985;28;20027;-74
2023/05/22 11:25:35;;;;;;;10.20;4.63;;;23.00;54.00;;;;;;4971651;28;20027;-76
2023/05/22 11:28:05;;;;;;;9.77;4.13;;;23.00;52.90;;;;;;4964062;28;20033;-76
2023/05/22 11:30:32;;;;;;;9.75;3.95;;;23.20;49.40;;;;;;4954495;28;20023;-75
2023/05/22 11:32:59;;;;;;;9.38;4.10;;;23.30;47.90;;;;;;4955145;28;20524;-76
2023/05/22 11:35:26;;;;;;;8.60;4.05;;;23.40;46.50;;;;;;4959466;28;20027;-75
2023/05/22 11:37:52;;;;;;;13.07;4.38;;;23.40;46.40;;;;;;4974824;28;20075;-76
2023/05/22 11:40:20;;;;;;;12.85;4.30;;;23.40;46.70;;;;;;4974140;28;20031;-77
2023/05/22 11:42:47;;;;;;;12.55;4.10;;;23.40;47.20;;;;;;4974156;28;20035;-76
2023/05/22 11:45:13;;;;;;;17.85;4.47;;;23.40;46.40;;;;;;4973678;28;20033;-76
2023/05/22 11:47:39;;;;;;;10.50;3.92;;;23.40;47.00;;;;;;4970250;28;20392;-76
2023/05/22 11:50:08;;;;;;;13.90;6.85;;;23.70;46.50;;;;;;4970736;28;20035;-77
2023/05/22 11:52:37;;;;;;;10.18;4.43;;;24.00;45.60;;;;;;4970925;28;20031;-76
2023/05/22 11:55:07;;;;;;;9.32;4.85;;;24.00;44.40;;;;;;4959313;28;20035;-78
2023/05/22 11:57:36;;;;;;;22.42;6.70;;;24.00;44.40;;;;;;4973939;28;20402;-78
2023/05/22 12:00:05;;;;;;;12.98;4.55;;;24.00;43.70;;;;;;4973805;28;20119;-77
2023/05/22 12:02:42;;;;;;;14.80;5.47;;;23.80;44.60;;;;;;4973309;28;20097;-76
2023/05/22 12:05:10;;;;;;;11.82;4.82;;;23.70;44.60;;;;;;4973834;28;20085;-78
2023/05/22 12:07:36;;;;;;;11.73;4.53;;;23.80;44.50;;;;;;4973674;28;20035;-78
2023/05/22 12:10:05;;;;;;;14.23;4.45;;;23.70;43.10;;;;;;4973469;28;20083;-78
2023/05/22 12:12:32;;;;;;;13.43;4.20;;;23.70;44.80;;;;;;4956242;28;20035;-77
2023/05/22 12:14:58;;;;;;;7.57;3.15;;;23.70;45.20;;;;;;4980851;28;20393;-77
2023/05/22 12:17:24;;;;;;;5.85;3.47;;;23.60;42.10;;;;;;4974342;28;20114;-77
2023/05/22 12:19:51;;;;;;;8.75;3.72;;;23.60;42.50;;;;;;4968054;28;20074;-78
2023/05/22 12:22:19;;;;;;;11.30;3.92;;;23.50;44.30;;;;;;4974492;28;20496;-78
2023/05/22 12:24:45;;;;;;;10.02;3.40;;;23.60;44.60;;;;;;4974693;28;20031;-78
2023/05/22 12:27:14;;;;;;;9.00;3.50;;;23.70;42.30;;;;;;4972850;28;20035;-78
2023/05/22 12:29:41;;;;;;;8.25;3.33;;;23.70;42.30;;;;;;4974602;28;20037;-78
2023/05/22 12:32:11;;;;;;;9.93;3.65;;;23.70;42.70;;;;;;4973326;28;20572;-78
2023/05/22 12:34:43;;;;;;;10.90;3.58;;;23.60;43.80;;;;;;4974337;28;20077;-78
2023/05/22 12:37:19;;;;;;;6.07;3.40;;;23.50;43.90;;;;;;4964832;28;20027;-78
2023/05/22 12:40:00;;;;;;;7.88;3.03;;;23.50;43.90;;;;;;4974639;28;20030;-78
2023/05/22 12:42:27;;;;;;;11.23;3.55;;;23.40;43.90;;;;;;4956416;28;20062;-78
2023/05/22 12:44:54;;;;;;;11.25;3.03;;;23.40;44.40;;;;;;4926144;29;20039;-78
2023/05/22 12:47:21;;;;;;;6.78;3.30;;;23.40;44.70;;;;;;4967162;28;20030;-78
2023/05/22 12:49:47;;;;;;;10.20;2.97;;;23.40;44.50;;;;;;4956687;28;20519;-79
2023/05/22 12:52:13;;;;;;;14.13;3.80;;;23.40;44.20;;;;;;4983593;23;20042;-77
2023/05/22 12:54:38;;;;;;;6.35;3.08;;;23.40;44.10;;;;;;4991430;28;20030;-76